Time;durP1;ratioP1;P1;durP2;ratioP2;P2;SDS_P1;SDS_P2;PMS_P1;PMS_P2;Temp;Humidity;BMP_temperature;BMP_pressure;BME280_temperature;BME280_humidity;BME280_pressure;Samples;Min_cycle;Max_cycle;Signal;HPM_P1;HPM_P2
2022/12/22 03:27:10;;;;;;;;;;;;;;;20.42;47.84;100130.97;5019408;28;5329;-61
2022/12/22 03:29:37;;;;;;;;;;;;;;;20.42;47.79;100136.00;5025418;28;4194;-61
2022/12/22 03:32:03;;;;;;;;;;;;;;;20.41;47.66;100125.88;5014406;28;6380;-61
2022/12/22 03:34:29;;;;;;;;;;;;;;;20.41;47.79;100118.03;5027111;28;4042;-60
2022/12/22 03:36:56;;;;;;;;;;;;;;;20.41;47.77;100118.03;5024594;28;4217;-61
2022/12/22 03:39:22;;;;;;;;;;;;;;;20.42;47.72;100113.72;5017861;28;4138;-60
2022/12/22 03:47:18;;;;;;;;;;;;;;;20.47;47.64;100095.19;5039600;28;4867;-61
2022/12/22 03:49:45;;;;;;;;;;;;;;;20.49;47.50;100094.53;5042340;28;4163;-60
2022/12/22 03:52:11;;;;;;;;;;;;;;;20.50;47.39;100085.25;5046143;28;4158;-61
2022/12/22 03:54:37;;;;;;;;;;;;;;;20.51;47.39;100086.72;5040440;28;4137;-60
2022/12/22 03:57:04;;;;;;;;;;;;;;;20.53;47.58;100082.44;5041308;28;5260;-61
2022/12/22 03:59:30;;;;;;;;;;;;;;;20.52;47.69;100078.81;5030988;28;4195;-61
2022/12/22 04:01:56;;;;;;;;;;;;;;;20.53;47.67;100068.06;5043257;28;4210;-61
2022/12/22 04:04:23;;;;;;;;;;;;;;;20.53;47.60;100065.19;5047067;28;4089;-61
2022/12/22 04:06:50;;;;;;;;;;;;;;;20.51;47.56;100066.59;5049800;28;4156;-61
2022/12/22 04:09:16;;;;;;;;;;;;;;;20.51;47.58;100057.97;5042338;28;3961;-61
2022/12/22 04:14:27;;;;;;;;;;;;;;;20.51;47.67;100052.19;5042645;28;4122;-61
2022/12/22 04:16:59;;;;;;;;;;;;;;;20.50;47.63;100059.38;5040160;28;5171;-61
2022/12/22 04:19:26;;;;;;;;;;;;;;;20.50;47.64;100056.50;5047651;28;4356;-61
2022/12/22 04:21:53;;;;;;;;;;;;;;;20.50;47.65;100056.50;5038062;28;4457;-62
2022/12/22 04:24:19;;;;;;;;;;;;;;;20.50;47.66;100047.88;5050915;28;4239;-61
2022/12/22 04:26:45;;;;;;;;;;;;;;;20.50;47.59;100044.25;5035798;28;4172;-61
2022/12/22 04:29:12;;;;;;;;;;;;;;;20.53;47.57;100053.69;5038091;28;4016;-60
2022/12/22 04:31:38;;;;;;;;;;;;;;;20.52;47.58;100041.44;5036114;28;4043;-61
2022/12/22 04:34:04;;;;;;;;;;;;;;;20.51;47.55;100049.34;5041754;28;4152;-61
2022/12/22 04:36:31;;;;;;;;;;;;;;;20.53;47.58;100042.91;5037635;28;4933;-61
2022/12/22 04:38:57;;;;;;;;;;;;;;;20.53;47.61;100036.44;5035011;28;5540;-61
2022/12/22 04:41:23;;;;;;;;;;;;;;;20.52;47.59;100041.44;5036933;28;4177;-61
2022/12/22 04:43:50;;;;;;;;;;;;;;;20.52;47.49;100050.06;5032541;28;4273;-60
2022/12/22 04:46:16;;;;;;;;;;;;;;;20.51;47.65;100046.44;5041700;28;4193;-61
2022/12/22 04:48:42;;;;;;;;;;;;;;;20.51;47.59;100040.69;5059884;28;5425;-61
2022/12/22 04:51:09;;;;;;;;;;;;;;;20.51;47.69;100034.94;5039196;28;4133;-61
2022/12/22 04:53:35;;;;;;;;;;;;;;;20.52;47.57;100024.19;5045459;28;4314;-61
2022/12/22 04:56:02;;;;;;;;;;;;;;;20.55;47.55;100030.72;5046877;28;4220;-61
2022/12/22 04:58:29;;;;;;;;;;;;;;;20.56;47.76;100023.59;5043035;28;5459;-61
2022/12/22 05:00:55;;;;;;;;;;;;;;;20.55;47.71;100013.47;5042184;28;4151;-61
2022/12/22 05:03:22;;;;;;;;;;;;;;;20.56;47.75;100012.84;5045502;28;4315;-60
2022/12/22 05:05:48;;;;;;;;;;;;;;;20.57;47.76;100004.94;5036123;28;4189;-61
2022/12/22 05:08:14;;;;;;;;;;;;;;;20.56;47.63;100001.34;5038070;28;4151;-61
2022/12/22 05:10:41;;;;;;;;;;;;;;;20.55;47.69;99999.09;5042295;28;4045;-61
2022/12/22 05:13:07;;;;;;;;;;;;;;;20.55;47.68;99999.09;5040721;28;5449;-61
2022/12/22 05:15:34;;;;;;;;;;;;;;;20.57;47.71;99996.31;5050161;28;4179;-61
2022/12/22 05:18:00;;;;;;;;;;;;;;;20.55;47.79;99993.34;5045392;28;4352;-61
2022/12/22 05:20:27;;;;;;;;;;;;;;;20.54;47.82;99986.13;5053029;28;4299;-61
2022/12/22 05:22:53;;;;;;;;;;;;;;;20.56;47.70;99989.06;5048921;28;4314;-61
2022/12/22 05:25:19;;;;;;;;;;;;;;;20.55;47.68;99984.72;5041482;28;4323;-61
2022/12/22 05:27:46;;;;;;;;;;;;;;;20.56;47.64;99983.31;5052766;28;6204;-61
2022/12/22 05:30:12;;;;;;;;;;;;;;;20.56;47.66;99971.81;5044288;28;4125;-61
2022/12/22 05:32:39;;;;;;;;;;;;;;;20.57;47.72;99979.81;5039044;28;5207;-61
2022/12/22 05:35:05;;;;;;;;;;;;;;;20.58;47.75;99969.03;5042115;28;4262;-61
2022/12/22 05:37:31;;;;;;;;;;;;;;;20.58;47.82;99964.00;5048961;28;4242;-61
2022/12/22 05:39:58;;;;;;;;;;;;;;;20.57;47.98;99961.78;5045222;28;4205;-61
2022/12/22 05:42:36;;;;;;;;;;;;;;;20.57;47.91;99956.03;5034558;28;4125;-61
2022/12/22 05:45:11;;;;;;;;;;;;;;;20.57;47.64;99956.03;5042697;28;4309;-60
2022/12/22 05:47:37;;;;;;;;;;;;;;;20.56;47.69;99957.44;5045821;28;4189;-61
2022/12/22 05:50:04;;;;;;;;;;;;;;;20.55;47.62;99955.94;5049355;28;4384;-61
2022/12/22 05:52:31;;;;;;;;;;;;;;;20.56;47.63;99955.31;5047090;28;5240;-61
2022/12/22 05:54:57;;;;;;;;;;;;;;;20.55;47.60;99941.56;5037802;28;4319;-61
2022/12/22 05:57:26;;;;;;;;;;;;;;;20.55;47.54;99941.56;5031946;28;4124;-60
2022/12/22 05:59:52;;;;;;;;;;;;;;;20.54;47.50;99948.75;5038840;28;5280;-61
2022/12/22 06:02:19;;;;;;;;;;;;;;;20.54;47.47;99937.22;5047747;28;5297;-60
2022/12/22 06:04:45;;;;;;;;;;;;;;;20.57;47.74;99938.78;5051025;28;4105;-60
2022/12/22 06:07:12;;;;;;;;;;;;;;;20.57;47.84;99944.53;5039588;28;4123;-60
2022/12/22 06:09:38;;;;;;;;;;;;;;;20.58;47.81;99928.75;5033292;28;5452;-60
2022/12/22 06:12:05;;;;;;;;;;;;;;;20.58;47.84;99928.75;5044189;28;4170;-60
2022/12/22 06:14:31;;;;;;;;;;;;;;;20.58;47.91;99923.00;5035962;28;5055;-60
2022/12/22 06:16:58;;;;;;;;;;;;;;;20.58;47.98;99923.75;5044045;28;5283;-61
2022/12/22 06:19:24;;;;;;;;;;;;;;;20.57;47.88;99922.28;5034062;28;4036;-61
2022/12/22 06:21:53;;;;;;;;;;;;;;;20.58;48.07;99920.13;5040839;28;4727;-60
2022/12/22 06:24:20;;;;;;;;;;;;;;;20.57;47.78;99910.03;5036254;28;4297;-60
2022/12/22 06:26:46;;;;;;;;;;;;;;;20.56;47.96;99912.16;5033878;28;4247;-61
2022/12/22 06:29:12;;;;;;;;;;;;;;;20.57;47.94;99918.66;5032851;28;5245;-61
2022/12/22 06:31:39;;;;;;;;;;;;;;;20.56;47.74;99908.53;5037024;28;6623;-61
2022/12/22 06:34:05;;;;;;;;;;;;;;;20.56;47.92;99899.91;5042873;28;5208;-61
2022/12/22 06:36:33;;;;;;;;;;;;;;;20.53;47.71;99904.88;5038097;28;4216;-60
2022/12/22 06:38:59;;;;;;;;;;;;;;;20.52;48.08;99909.13;5031423;28;4117;-63
2022/12/22 06:44:11;;;;;;;;;;;;;;;20.50;48.18;99906.97;5041126;28;4172;-61
2022/12/22 06:46:37;;;;;;;;;;;;;;;20.63;48.22;99890.09;5030486;28;4191;-68
2022/12/22 06:49:06;;;;;;;;;;;;;;;20.75;50.49;99907.69;5027385;28;5291;-71
2022/12/22 06:51:33;;;;;;;;;;;;;;;21.06;51.94;99902.84;5032455;28;4151;-73
2022/12/22 06:53:59;;;;;;;;;;;;;;;21.22;50.93;99900.41;5040037;28;4214;-73
2022/12/22 06:56:25;;;;;;;;;;;;;;;21.30;50.23;99894.13;5035715;28;4199;-73
2022/12/22 06:58:52;;;;;;;;;;;;;;;21.14;48.75;99900.16;5033446;28;4143;-73
2022/12/22 07:01:21;;;;;;;;;;;;;;;20.99;48.99;99889.69;5042851;28;4060;-73
2022/12/22 07:03:47;;;;;;;;;;;;;;;21.02;49.36;99882.56;5033521;28;4174;-73
2022/12/22 07:06:14;;;;;;;;;;;;;;;21.06;49.74;99880.53;5035115;28;4099;-74
2022/12/22 07:08:40;;;;;;;;;;;;;;;21.06;49.43;99882.69;5043170;28;4132;-78
2022/12/22 07:11:07;;;;;;;;;;;;;;;20.93;49.42;99888.09;5045495;28;5291;-71
2022/12/22 07:13:33;;;;;;;;;;;;;;;20.93;50.20;99893.84;5051904;28;4090;-70
2022/12/22 07:16:03;;;;;;;;;;;;;;;20.90;49.86;99885.84;5051384;28;4011;-73
2022/12/22 07:18:30;;;;;;;;;;;;;;;21.03;50.22;99890.53;5048155;28;4165;-72
2022/12/22 07:20:58;;;;;;;;;;;;;;;21.11;50.18;99890.03;5048222;28;4126;-72
2022/12/22 07:23:24;;;;;;;;;;;;;;;21.16;49.80;99891.59;5046653;28;5347;-72
2022/12/22 07:25:53;;;;;;;;;;;;;;;21.20;49.37;99874.44;5041346;28;4102;-73
2022/12/22 07:28:22;;;;;;;;;;;;;;;21.34;49.08;99871.94;5046644;28;4035;-71
2022/12/22 07:30:54;;;;;;;;;;;;;;;21.55;48.74;99872.50;5042930;28;5372;-71
2022/12/22 07:33:21;;;;;;;;;;;;;;;21.65;48.07;99869.88;5042342;28;4138;-71
2022/12/22 07:35:47;;;;;;;;;;;;;;;21.66;47.84;99868.47;5042576;28;4103;-70
2022/12/22 07:38:13;;;;;;;;;;;;;;;21.69;47.75;99869.25;5045072;28;5323;-72
2022/12/22 07:40:40;;;;;;;;;;;;;;;21.70;47.63;99865.69;5043928;28;4188;-71
2022/12/22 07:43:10;;;;;;;;;;;;;;;21.69;47.52;99867.13;5038711;28;4234;-71
2022/12/22 07:45:37;;;;;;;;;;;;;;;21.72;47.47;99868.63;5054030;28;4157;-72
2022/12/22 07:50:23;;;;;;;;;;;;;;;21.79;47.12;99857.25;5043010;28;5488;-72
2022/12/22 07:50:51;;;;;;;;;;;;;;;21.89;46.79;99858.22;5053622;28;4508;-73
2022/12/22 07:53:18;;;;;;;;;;;;;;;21.63;47.40;99852.53;5053239;28;5213;-69
2022/12/22 07:55:44;;;;;;;;;;;;;;;21.55;47.33;99843.69;5043724;28;5394;-70
2022/12/22 07:58:10;;;;;;;;;;;;;;;21.51;47.08;99846.50;5057869;28;4126;-69
2022/12/22 08:00:37;;;;;;;;;;;;;;;21.56;46.81;99848.06;5046706;28;4233;-70
2022/12/22 08:03:03;;;;;;;;;;;;;;;21.70;47.18;99839.75;5038886;28;4708;-68
2022/12/22 08:05:30;;;;;;;;;;;;;;;21.74;46.42;99836.97;5048615;28;4257;-68
2022/12/22 08:07:56;;;;;;;;;;;;;;;21.72;46.62;99828.28;5042140;28;4234;-69
2022/12/22 08:10:22;;;;;;;;;;;;;;;21.77;46.51;99831.28;5041690;28;5373;-70
2022/12/22 08:12:49;;;;;;;;;;;;;;;21.67;45.76;99835.38;5043251;28;5493;-69
2022/12/22 08:15:15;;;;;;;;;;;;;;;21.66;46.15;99833.88;5054314;28;3918;-71
2022/12/22 08:17:41;;;;;;;;;;;;;;;21.68;46.17;99836.81;5050701;28;4486;-75
2022/12/22 08:20:08;;;;;;;;;;;;;;;21.64;45.98;99827.34;5047209;28;4209;-71
2022/12/22 08:22:34;;;;;;;;;;;;;;;21.75;46.25;99832.66;5056734;28;3924;-73
2022/12/22 08:25:01;;;;;;;;;;;;;;;21.39;46.41;99837.50;5052279;28;4111;-74
2022/12/22 08:27:30;;;;;;;;;;;;;;;21.37;46.50;99828.78;5047171;28;4202;-72
2022/12/22 08:29:57;;;;;;;;;;;;;;;21.05;46.87;99823.63;5033590;28;4555;-77
2022/12/22 08:32:23;;;;;;;;;;;;;;;20.40;46.86;99829.00;5042802;28;5326;-71
2022/12/22 08:34:50;;;;;;;;;;;;;;;20.58;45.92;99822.34;5038348;28;4112;-71
2022/12/22 08:37:17;;;;;;;;;;;;;;;20.74;45.78;99819.94;5042543;28;5360;-71
2022/12/22 08:39:43;;;;;;;;;;;;;;;20.81;45.99;99824.44;5046616;28;4066;-71
2022/12/22 08:42:10;;;;;;;;;;;;;;;20.85;46.17;99807.31;5047561;28;4202;-71
2022/12/22 08:44:39;;;;;;;;;;;;;;;20.87;46.29;99815.25;5041430;28;4275;-71
2022/12/22 08:47:05;;;;;;;;;;;;;;;20.87;46.44;99803.75;5042949;28;4169;-71
2022/12/22 08:49:40;;;;;;;;;;;;;;;20.88;46.66;99805.94;5039624;28;4882;-71
2022/12/22 08:52:06;;;;;;;;;;;;;;;20.86;46.67;99805.16;5040348;28;4106;-71
2022/12/22 08:54:39;;;;;;;;;;;;;;;20.87;46.74;99798.72;5034934;28;4084;-71
2022/12/22 08:57:05;;;;;;;;;;;;;;;20.84;46.84;99797.19;5033488;28;5400;-71
2022/12/22 08:59:32;;;;;;;;;;;;;;;20.84;46.92;99794.31;5043293;28;4034;-71
2022/12/22 09:02:03;;;;;;;;;;;;;;;20.85;46.92;99792.19;5040751;28;3982;-71
2022/12/22 09:04:30;;;;;;;;;;;;;;;20.86;46.97;99790.75;5041860;28;4076;-71
2022/12/22 09:06:57;;;;;;;;;;;;;;;20.88;47.51;99800.19;5040157;28;4103;-71
2022/12/22 09:09:23;;;;;;;;;;;;;;;20.89;47.58;99792.28;5038576;28;4155;-71
2022/12/22 09:11:49;;;;;;;;;;;;;;;20.88;47.48;99785.78;5039917;28;5361;-71
2022/12/22 09:14:16;;;;;;;;;;;;;;;20.88;47.77;99791.56;5036820;28;5023;-72
2022/12/22 09:16:42;;;;;;;;;;;;;;;20.89;47.61;99783.66;5041798;28;4665;-71
2022/12/22 09:19:09;;;;;;;;;;;;;;;20.89;47.61;99777.88;5033399;28;4137;-71
2022/12/22 09:21:35;;;;;;;;;;;;;;;20.89;47.44;99784.41;5040252;28;5322;-71
2022/12/22 09:24:03;;;;;;;;;;;;;;;20.90;47.33;99776.50;5037711;28;4357;-72
2022/12/22 09:26:29;;;;;;;;;;;;;;;20.89;47.40;99775.78;5032856;28;5562;-71
2022/12/22 09:28:56;;;;;;;;;;;;;;;20.89;47.49;99778.66;5034275;28;4150;-71
2022/12/22 09:31:23;;;;;;;;;;;;;;;20.91;47.53;99770.06;5032043;28;4279;-71
2022/12/22 09:33:50;;;;;;;;;;;;;;;20.92;47.54;99765.78;5032726;28;5367;-71
2022/12/22 09:36:17;;;;;;;;;;;;;;;20.93;47.18;99761.47;5032289;28;4081;-71
2022/12/22 09:38:43;;;;;;;;;;;;;;;20.94;47.56;99767.97;5031687;28;4175;-71
2022/12/22 09:41:13;;;;;;;;;;;;;;;20.96;47.44;99758.66;5032435;28;4138;-71
2022/12/22 09:43:40;;;;;;;;;;;;;;;20.96;47.69;99752.88;5038651;28;4186;-71
2022/12/22 09:46:14;;;;;;;;;;;;;;;20.96;47.52;99750.78;5038003;28;4054;-71
2022/12/22 09:48:41;;;;;;;;;;;;;;;20.96;47.68;99753.66;5048848;28;4066;-71
2022/12/22 09:51:09;;;;;;;;;;;;;;;20.96;47.63;99752.88;5037571;28;4103;-71
2022/12/22 09:53:36;;;;;;;;;;;;;;;20.93;47.47;99749.94;5042645;28;4114;-72
2022/12/22 09:56:02;;;;;;;;;;;;;;;20.90;47.49;99745.56;5040003;28;4171;-71
2022/12/22 09:58:30;;;;;;;;;;;;;;;20.89;47.50;99749.13;5046777;28;4213;-71
2022/12/22 10:00:59;;;;;;;;;;;;;;;20.89;47.50;99755.63;5038632;28;4529;-71
2022/12/22 10:03:28;;;;;;;;;;;;;;;20.89;47.49;99744.13;5038572;28;5276;-71
2022/12/22 10:06:11;;;;;;;;;;;;;;;20.89;47.53;99744.13;5036910;28;4194;-71
2022/12/22 10:08:39;;;;;;;;;;;;;;;20.89;47.60;99741.25;5045956;28;4471;-71
2022/12/22 10:11:05;;;;;;;;;;;;;;;20.90;47.57;99736.94;5041928;28;3953;-71
2022/12/22 10:13:32;;;;;;;;;;;;;;;20.92;47.44;99734.13;5048774;28;4551;-71
2022/12/22 10:15:58;;;;;;;;;;;;;;;20.93;47.78;99738.44;5039470;28;4059;-71
2022/12/22 10:18:25;;;;;;;;;;;;;;;20.95;47.67;99722.66;5042832;28;4103;-72
2022/12/22 10:21:02;;;;;;;;;;;;;;;20.96;47.78;99718.34;5036300;28;4035;-73
2022/12/22 10:23:29;;;;;;;;;;;;;;;20.96;47.79;99718.34;5036670;28;4068;-82
2022/12/22 10:25:59;;;;;;;;;;;;;;;20.30;47.13;99722.34;5025048;28;4192;-74
2022/12/22 10:28:50;;;;;;;;;;;;;;;20.42;47.79;99716.91;5029399;28;4012;-76
2022/12/22 10:31:18;;;;;;;;;;;;;;;20.75;47.68;99717.81;5038695;28;5467;-68
2022/12/22 10:33:46;;;;;;;;;;;;;;;20.92;47.85;99724.75;5043867;28;4178;-71
2022/12/22 10:36:13;;;;;;;;;;;;;;;21.00;47.81;99713.44;5049207;28;4236;-69
2022/12/22 10:38:51;;;;;;;;;;;;;;;21.06;47.73;99715.75;5036238;28;5283;-67
2022/12/22 10:41:20;;;;;;;;;;;;;;;21.13;47.43;99712.34;5033207;28;5298;-70
2022/12/22 10:43:47;;;;;;;;;;;;;;;21.14;47.50;99704.44;5043504;28;4570;-70
2022/12/22 10:46:14;;;;;;;;;;;;;;;21.21;47.62;99705.31;5052108;28;4543;-67
2022/12/22 10:48:40;;;;;;;;;;;;;;;21.23;47.52;99705.38;5046811;28;5315;-69
2022/12/22 10:51:08;;;;;;;;;;;;;;;21.25;47.50;99697.50;5047718;28;5448;-68
2022/12/22 10:53:39;;;;;;;;;;;;;;;21.17;47.11;99696.59;5045248;28;5441;-66
2022/12/22 10:56:05;;;;;;;;;;;;;;;21.17;47.37;99703.09;5045731;28;5679;-70
2022/12/22 10:58:45;;;;;;;;;;;;;;;21.27;47.40;99700.44;5049115;28;4179;-69
2022/12/22 11:01:11;;;;;;;;;;;;;;;21.26;47.31;99698.97;5041957;28;4533;-68
2022/12/22 11:03:37;;;;;;;;;;;;;;;21.33;47.50;99703.47;5041888;28;4735;-67
2022/12/22 11:06:09;;;;;;;;;;;;;;;21.41;47.18;99699.34;5047590;28;5189;-66
2022/12/22 11:08:35;;;;;;;;;;;;;;;21.38;47.50;99698.53;5051066;28;4189;-66
2022/12/22 11:11:03;;;;;;;;;;;;;;;21.45;47.50;99690.81;5031595;28;4115;-69
2022/12/22 11:13:49;;;;;;;;;;;;;;;21.40;47.50;99678.47;5037388;28;4236;-67
2022/12/22 11:16:23;;;;;;;;;;;;;;;21.39;47.79;99682.00;5039138;28;4246;-68
2022/12/22 11:19:02;;;;;;;;;;;;;;;21.32;47.75;99684.72;5047238;28;4177;-74
2022/12/22 11:21:28;;;;;;;;;;;;;;;21.15;47.57;99677.13;5046895;28;4234;-74
2022/12/22 11:24:00;;;;;;;;;;;;;;;21.01;47.46;99679.66;5040468;28;4189;-70
2022/12/22 11:26:30;;;;;;;;;;;;;;;20.88;47.30;99676.47;5041511;28;4082;-71
2022/12/22 11:29:00;;;;;;;;;;;;;;;20.71;47.92;99669.56;5034193;28;5193;-72
2022/12/22 11:31:31;;;;;;;;;;;;;;;20.53;48.30;99674.09;5044505;28;4598;-70
2022/12/22 11:34:01;;;;;;;;;;;;;;;20.37;47.86;99663.59;5048602;28;5403;-67
2022/12/22 11:36:50;;;;;;;;;;;;;;;20.58;47.71;99675.69;5040368;28;4822;-72
2022/12/22 11:39:18;;;;;;;;;;;;;;;20.88;47.67;99667.81;5043181;28;4189;-70
2022/12/22 11:41:48;;;;;;;;;;;;;;;21.01;47.90;99666.00;5035438;28;4195;-75
2022/12/22 11:44:19;;;;;;;;;;;;;;;21.10;48.09;99666.94;5039894;28;4313;-74
2022/12/22 11:47:04;;;;;;;;;;;;;;;21.13;47.89;99662.69;5037466;28;4365;-74
2022/12/22 11:49:52;;;;;;;;;;;;;;;21.16;48.07;99654.81;5041239;28;4312;-74
2022/12/22 11:52:29;;;;;;;;;;;;;;;21.16;48.10;99655.53;5038462;28;6245;-75
2022/12/22 11:54:59;;;;;;;;;;;;;;;21.15;47.76;99656.97;5043091;28;4224;-75
2022/12/22 11:57:44;;;;;;;;;;;;;;;21.13;48.31;99651.88;5039552;28;4031;-75
2022/12/22 12:00:12;;;;;;;;;;;;;;;21.16;47.86;99649.78;5031008;28;4094;-74
2022/12/22 12:03:02;;;;;;;;;;;;;;;21.14;48.36;99649.75;5041242;28;3982;-74
2022/12/22 12:05:52;;;;;;;;;;;;;;;21.16;48.56;99644.03;5047256;28;4040;-75
2022/12/22 12:08:25;;;;;;;;;;;;;;;21.12;48.65;99643.97;5037062;28;4420;-73
2022/12/22 12:11:00;;;;;;;;;;;;;;;21.13;48.41;99639.66;5036316;28;3962;-76
2022/12/22 12:13:40;;;;;;;;;;;;;;;21.15;48.47;99650.50;5032914;28;4016;-75
2022/12/22 12:16:17;;;;;;;;;;;;;;;21.15;48.92;99651.22;5037228;28;4220;-75
2022/12/22 12:19:02;;;;;;;;;;;;;;;21.15;48.90;99653.38;5032487;28;3972;-74
2022/12/22 12:21:49;;;;;;;;;;;;;;;21.12;49.08;99655.47;5040257;28;4142;-76
2022/12/22 12:24:34;;;;;;;;;;;;;;;21.13;48.86;99651.16;5032587;28;4264;-75
2022/12/22 12:27:06;;;;;;;;;;;;;;;21.05;48.91;99645.94;5035408;28;4178;-74
2022/12/22 12:29:36;;;;;;;;;;;;;;;21.09;49.40;99651.06;5039885;28;4034;-71
2022/12/22 12:32:10;;;;;;;;;;;;;;;21.09;49.32;99640.28;5041069;28;5390;-72
2022/12/22 12:34:37;;;;;;;;;;;;;;;21.11;49.58;99648.25;5044625;28;4022;-72
2022/12/22 12:37:14;;;;;;;;;;;;;;;21.08;49.28;99652.50;5044505;28;4328;-71
2022/12/22 12:39:47;;;;;;;;;;;;;;;21.22;49.96;99641.31;5034970;28;4160;-68
2022/12/22 12:42:30;;;;;;;;;;;;;;;21.27;49.74;99648.63;5039556;28;4125;-68
2022/12/22 12:44:56;;;;;;;;;;;;;;;21.21;49.38;99650.63;5028156;28;4170;-71
2022/12/22 12:47:23;;;;;;;;;;;;;;;20.97;49.47;99645.03;5044806;28;5650;-70
2022/12/22 12:49:52;;;;;;;;;;;;;;;20.73;49.49;99645.13;5046177;28;4231;-69
2022/12/22 12:52:39;;;;;;;;;;;;;;;20.79;48.90;99651.78;5042541;28;4138;-71
2022/12/22 12:55:24;;;;;;;;;;;;;;;20.91;48.75;99654.97;5035001;28;5203;-73
2022/12/22 12:57:57;;;;;;;;;;;;;;;21.11;48.80;99642.47;5040796;28;4201;-76
2022/12/22 13:00:33;;;;;;;;;;;;;;;21.62;48.43;99652.31;5038164;28;4064;-71
2022/12/22 13:03:04;;;;;;;;;;;;;;;21.49;47.70;99650.59;5041492;28;4074;-71
2022/12/22 13:05:49;;;;;;;;;;;;;;;21.56;47.75;99652.19;5036900;28;5293;-71
2022/12/22 13:08:16;;;;;;;;;;;;;;;21.80;47.65;99657.72;5039069;28;4484;-73
2022/12/22 13:10:52;;;;;;;;;;;;;;;21.92;47.38;99660.13;5044136;28;4016;-74
2022/12/22 13:13:24;;;;;;;;;;;;;;;22.01;47.50;99664.66;5030777;28;4033;-71
2022/12/22 13:15:59;;;;;;;;;;;;;;;22.04;47.71;99669.06;5039884;28;4145;-70
2022/12/22 13:18:27;;;;;;;;;;;;;;;22.01;47.30;99667.53;5039905;28;4318;-71
2022/12/22 13:21:06;;;;;;;;;;;;;;;22.06;47.24;99677.75;5031119;28;4053;-72
2022/12/22 13:23:55;;;;;;;;;;;;;;;21.91;47.46;99670.94;5039204;28;4164;-74
2022/12/22 13:26:42;;;;;;;;;;;;;;;21.63;48.13;99676.81;5035148;28;4040;-69
2022/12/22 13:29:17;;;;;;;;;;;;;;;21.55;48.33;99688.16;5026053;28;4148;-75
2022/12/22 13:31:57;;;;;;;;;;;;;;;21.33;48.60;99686.19;5037893;28;4218;-72
2022/12/22 13:34:40;;;;;;;;;;;;;;;21.09;48.11;99691.34;5033162;28;4138;-73
2022/12/22 13:37:27;;;;;;;;;;;;;;;21.07;48.39;99694.94;5044417;28;4150;-74
2022/12/22 13:40:11;;;;;;;;;;;;;;;21.12;48.98;99707.28;5044633;28;4150;-72
2022/12/22 13:42:39;;;;;;;;;;;;;;;21.12;48.65;99708.00;5038512;28;4057;-78
2022/12/22 13:45:10;;;;;;;;;;;;;;;21.07;48.61;99712.19;5041650;28;4327;-71
2022/12/22 13:47:39;;;;;;;;;;;;;;;21.12;48.95;99713.03;5042932;28;4295;-74
2022/12/22 13:50:07;;;;;;;;;;;;;;;21.18;48.88;99707.41;5036678;28;5241;-72
2022/12/22 13:52:35;;;;;;;;;;;;;;;21.63;48.83;99705.63;5046441;28;4054;-75
2022/12/22 13:55:01;;;;;;;;;;;;;;;21.83;47.92;99716.13;5044419;28;4061;-75
2022/12/22 13:57:28;;;;;;;;;;;;;;;21.90;47.75;99712.72;5047377;28;4756;-72
2022/12/22 13:59:54;;;;;;;;;;;;;;;21.96;47.39;99717.88;5046585;28;4168;-72
2022/12/22 14:02:20;;;;;;;;;;;;;;;21.99;47.25;99716.50;5044371;28;4059;-72
2022/12/22 14:05:04;;;;;;;;;;;;;;;22.02;47.06;99720.16;5044955;28;4185;-73
2022/12/22 14:07:30;;;;;;;;;;;;;;;22.11;47.18;99728.28;5041182;28;4118;-71
2022/12/22 14:09:57;;;;;;;;;;;;;;;21.84;47.40;99732.03;5046091;28;4149;-74
2022/12/22 14:12:24;;;;;;;;;;;;;;;21.90;47.44;99740.81;5043233;28;4111;-74
2022/12/22 14:14:51;;;;;;;;;;;;;;;21.95;47.50;99739.47;5043481;28;4202;-71
2022/12/22 14:17:24;;;;;;;;;;;;;;;21.95;47.48;99751.00;5041541;28;4131;-71
2022/12/22 14:19:52;;;;;;;;;;;;;;;21.89;47.42;99750.84;5045993;28;4139;-71
2022/12/22 14:22:35;;;;;;;;;;;;;;;21.89;47.47;99759.50;5048833;28;4103;-72
2022/12/22 14:25:03;;;;;;;;;;;;;;;22.10;48.20;99749.88;5042008;28;4016;-73
2022/12/22 14:27:40;;;;;;;;;;;;;;;22.29;47.13;99758.97;5043723;28;4012;-74
2022/12/22 14:30:13;;;;;;;;;;;;;;;22.30;47.04;99764.03;5050666;28;4122;-74
2022/12/22 14:32:41;;;;;;;;;;;;;;;22.33;46.67;99764.78;5049863;28;4118;-74
2022/12/22 14:35:20;;;;;;;;;;;;;;;22.29;46.56;99768.34;5043585;28;4053;-71
2022/12/22 14:37:47;;;;;;;;;;;;;;;22.17;46.99;99768.78;5046711;28;4136;-70
2022/12/22 14:40:31;;;;;;;;;;;;;;;22.27;46.90;99779.09;5043247;28;4103;-74
2022/12/22 14:42:58;;;;;;;;;;;;;;;22.30;46.70;99783.50;5042910;28;4393;-74
2022/12/22 14:45:24;;;;;;;;;;;;;;;22.21;46.70;99787.59;5047943;28;4697;-75
2022/12/22 14:47:51;;;;;;;;;;;;;;;22.22;46.78;99789.06;5050907;28;4138;-74
2022/12/22 14:50:18;;;;;;;;;;;;;;;22.24;46.67;99803.53;5049262;28;6404;-70
2022/12/22 14:52:54;;;;;;;;;;;;;;;22.16;46.56;99807.69;5042954;28;4170;-77
2022/12/22 14:55:31;;;;;;;;;;;;;;;21.93;47.35;99808.59;5046780;28;5395;-73
2022/12/22 14:57:58;;;;;;;;;;;;;;;21.82;47.33;99804.00;5041997;28;4081;-72
2022/12/22 15:00:32;;;;;;;;;;;;;;;21.75;47.65;99812.50;5046205;28;4351;-71
2022/12/22 15:03:00;;;;;;;;;;;;;;;21.87;47.41;99814.22;5048193;28;4128;-74
2022/12/22 15:05:31;;;;;;;;;;;;;;;21.89;47.34;99817.16;5051026;28;4161;-71
2022/12/22 15:07:58;;;;;;;;;;;;;;;21.95;47.09;99826.66;5044535;28;4176;-73
2022/12/22 15:10:38;;;;;;;;;;;;;;;21.93;47.21;99817.97;5038077;28;4096;-76
2022/12/22 15:13:05;;;;;;;;;;;;;;;21.92;47.22;99822.28;5039804;28;4165;-76
2022/12/22 15:15:32;;;;;;;;;;;;;;;21.95;47.09;99831.69;5041920;28;4102;-81
2022/12/22 15:17:58;;;;;;;;;;;;;;;22.13;47.09;99837.16;5044764;28;3994;-84
2022/12/22 15:20:25;;;;;;;;;;;;;;;21.99;47.07;99839.69;5045359;28;4193;-80
2022/12/22 15:22:52;;;;;;;;;;;;;;;21.87;47.17;99849.53;5038604;28;4200;-83
2022/12/22 15:25:19;;;;;;;;;;;;;;;21.83;47.30;99854.44;5040493;28;4192;-80
2022/12/22 15:27:45;;;;;;;;;;;;;;;21.69;47.40;99858.47;5036747;28;4196;-70
2022/12/22 15:30:14;;;;;;;;;;;;;;;21.51;47.56;99866.66;5041885;28;4623;-72
2022/12/22 15:32:41;;;;;;;;;;;;;;;21.50;47.41;99870.94;5041764;28;4936;-70
2022/12/22 15:35:17;;;;;;;;;;;;;;;21.77;47.92;99874.50;5041399;28;5375;-72
2022/12/22 15:37:43;;;;;;;;;;;;;;;21.89;47.48;99880.53;5045490;28;4416;-72
2022/12/22 15:40:16;;;;;;;;;;;;;;;21.90;47.34;99882.03;5039911;28;5307;-73
2022/12/22 15:42:43;;;;;;;;;;;;;;;21.93;47.37;99887.13;5042839;28;4111;-70
2022/12/22 15:45:09;;;;;;;;;;;;;;;22.03;47.03;99888.81;5046057;28;4523;-73
2022/12/22 15:47:36;;;;;;;;;;;;;;;22.14;46.83;99891.25;5040990;28;4641;-73
2022/12/22 15:50:02;;;;;;;;;;;;;;;22.14;46.66;99899.16;5044995;28;5388;-74
2022/12/22 15:52:29;;;;;;;;;;;;;;;22.15;46.89;99903.50;5045946;28;4166;-75
2022/12/22 15:54:55;;;;;;;;;;;;;;;22.24;46.73;99913.09;5050404;28;4358;-74
2022/12/22 15:57:22;;;;;;;;;;;;;;;22.29;46.49;99914.69;5046235;28;4018;-75
2022/12/22 15:59:49;;;;;;;;;;;;;;;22.20;46.57;99916.63;5042431;28;5153;-71
2022/12/22 16:02:15;;;;;;;;;;;;;;;22.21;46.51;99923.09;5044048;28;4048;-77
2022/12/22 16:04:42;;;;;;;;;;;;;;;22.22;46.38;99928.22;5048883;28;6152;-75
2022/12/22 16:07:11;;;;;;;;;;;;;;;22.15;46.60;99933.09;5040865;28;3968;-76
2022/12/22 16:09:38;;;;;;;;;;;;;;;21.88;47.17;99934.56;5034254;28;4182;-78
2022/12/22 16:12:12;;;;;;;;;;;;;;;21.79;47.31;99935.06;5041187;28;4038;-78
2022/12/22 16:14:39;;;;;;;;;;;;;;;21.69;47.51;99935.50;5027820;28;5252;-75
2022/12/22 16:17:16;;;;;;;;;;;;;;;21.71;47.32;99936.28;5035270;28;5379;-73
2022/12/22 16:19:44;;;;;;;;;;;;;;;21.73;47.08;99939.22;5043143;28;4339;-70
2022/12/22 16:22:13;;;;;;;;;;;;;;;21.01;47.16;99933.66;5033389;28;3989;-74
2022/12/22 16:24:40;;;;;;;;;;;;;;;21.16;47.41;99937.66;5035289;28;4275;-77
2022/12/22 16:27:07;;;;;;;;;;;;;;;21.15;46.84;99944.84;5041041;28;4035;-82
2022/12/22 16:29:33;;;;;;;;;;;;;;;21.09;46.22;99944.66;5043303;28;4146;-80
2022/12/22 16:32:29;;;;;;;;;;;;;;;21.39;46.29;99946.91;5032884;28;4179;-75
2022/12/22 16:35:07;;;;;;;;;;;;;;;21.51;46.92;99958.81;5008748;28;5202;-72
2022/12/22 16:37:36;;;;;;;;;;;;;;;21.66;46.85;99957.78;5034236;28;5062;-70
2022/12/22 16:40:03;;;;;;;;;;;;;;;21.75;46.70;99961.59;5037012;28;4327;-71
2022/12/22 16:42:29;;;;;;;;;;;;;;;21.84;46.70;99965.44;5043166;28;4380;-71
2022/12/22 16:45:14;;;;;;;;;;;;;;;21.78;46.82;99965.28;5045766;28;4103;-71